Bookmark and Share
Track history (hours):
 

Niitaka Maru

Last reported at 2012-Jun-03 15:32 UTC. Time now 2014-Apr-16 19:15 UTC.
Position N 28°30' W 123°28'.
Warning: this ship's position is years out of date!

Length 289.8 m; beam 46 m.

Type: Cargo ship. MMSI: 431162000.

NotesDate/timePositionNaut miles runAvg speedWind from/ knotsBaromVisibWave heightAir tempDewpointWater temp
2012-Jun-03 15:32N 28°30' W 123°28'1312.1
2012-Jun-03 14:28N 28°30' W 123°14'1112.1
2012-Jun-03 13:33N 28°30' W 123°01'1212.1
2012-Jun-03 12:33N 28°30' W 122°47'1212.0
2012-Jun-03 11:32N 28°30' W 122°33'  
2012-May-28 11:31N 31°44' W 117°26'2814.0
2012-May-28 09:33N 32°09' W 117°40'1413.6
2012-May-28 08:33N 32°21' W 117°47'1313.5
2012-May-28 07:33N 32°34' W 117°51'1413.8
2012-May-28 06:33N 32°48' W 117°52'1414.0
2012-May-28 05:33N 33°02' W 117°56'1212.5
2012-May-28 04:36N 33°12' W 118°02'1211.8
2012-May-28 03:33N 33°24' W 118°08'1111.4
2012-May-28 02:33N 33°34' W 118°13'9 4.6
2012-May-28 00:31N 33°44' W 118°12'0 0.0
2012-May-27 23:28N 33°44' W 118°12'0 0.0
2012-May-27 22:31N 33°44' W 118°12'0 0.0
2012-May-27 21:31N 33°44' W 118°12'0 0.0
2012-May-27 20:31N 33°44' W 118°12'0 0.0
2012-May-27 15:25N 33°44' W 118°12'3 1.4
2012-May-27 13:33N 33°41' W 118°11'8 7.9
2012-May-27 12:32N 33°34' W 118°09'1110.7
2012-May-27 11:31N 33°23' W 118°05'1010.9
2012-May-27 10:35N 33°14' W 117°60'1110.4
2012-May-27 09:33N 33°04' W 117°54'1010.5
2012-May-27 08:33N 32°54' W 117°51'9 8.9
2012-May-27 07:33N 32°45' W 117°48'1313.2
2012-May-27 06:33N 32°33' W 117°52'1413.7
2012-May-27 05:33N 32°20' W 117°60'1313.8
2012-May-27 04:36N 32°18' W 118°15'  

Dump ship's entire track history

sailing weather and tide predictions

Niitaka Maru — JBGY — position and weather